sensor_id;sensor_type;location;lat;lon;timestamp;P1;durP1;ratioP1;P2;durP2;ratioP2
21438;SDS011;10880;50.302;18.736;2023-09-18T00:01:29;2.40;;;2.20;;
21438;SDS011;10880;50.302;18.736;2023-09-18T00:03:55;2.10;;;1.90;;
21438;SDS011;10880;50.302;18.736;2023-09-18T00:06:21;2.40;;;2.20;;
21438;SDS011;10880;50.302;18.736;2023-09-18T00:08:49;2.60;;;2.40;;
21438;SDS011;10880;50.302;18.736;2023-09-18T00:11:16;2.73;;;2.53;;
21438;SDS011;10880;50.302;18.736;2023-09-18T00:13:45;2.60;;;2.40;;
21438;SDS011;10880;50.302;18.736;2023-09-18T00:16:11;2.80;;;2.50;;
21438;SDS011;10880;50.302;18.736;2023-09-18T00:18:38;2.73;;;2.53;;
21438;SDS011;10880;50.302;18.736;2023-09-18T00:21:05;2.47;;;2.27;;
21438;SDS011;10880;50.302;18.736;2023-09-18T00:23:32;2.70;;;2.50;;
21438;SDS011;10880;50.302;18.736;2023-09-18T00:26:01;2.80;;;2.60;;
21438;SDS011;10880;50.302;18.736;2023-09-18T00:28:27;3.87;;;2.63;;
21438;SDS011;10880;50.302;18.736;2023-09-18T00:30:54;2.60;;;2.40;;
21438;SDS011;10880;50.302;18.736;2023-09-18T00:33:20;2.50;;;2.30;;
21438;SDS011;10880;50.302;18.736;2023-09-18T00:35:47;3.30;;;2.37;;
21438;SDS011;10880;50.302;18.736;2023-09-18T00:38:15;3.40;;;3.10;;
21438;SDS011;10880;50.302;18.736;2023-09-18T00:40:42;2.73;;;2.53;;
21438;SDS011;10880;50.302;18.736;2023-09-18T00:43:08;2.60;;;2.40;;
21438;SDS011;10880;50.302;18.736;2023-09-18T00:45:40;2.63;;;2.43;;
21438;SDS011;10880;50.302;18.736;2023-09-18T00:48:11;2.87;;;2.57;;
21438;SDS011;10880;50.302;18.736;2023-09-18T00:50:38;2.60;;;2.40;;
21438;SDS011;10880;50.302;18.736;2023-09-18T00:53:06;2.33;;;2.13;;
21438;SDS011;10880;50.302;18.736;2023-09-18T00:55:36;2.50;;;2.30;;
21438;SDS011;10880;50.302;18.736;2023-09-18T00:58:04;2.53;;;2.33;;
21438;SDS011;10880;50.302;18.736;2023-09-18T01:00:32;2.50;;;2.30;;
21438;SDS011;10880;50.302;18.736;2023-09-18T01:02:59;2.43;;;2.23;;
21438;SDS011;10880;50.302;18.736;2023-09-18T01:05:27;2.50;;;2.20;;
21438;SDS011;10880;50.302;18.736;2023-09-18T01:07:54;2.80;;;2.43;;
21438;SDS011;10880;50.302;18.736;2023-09-18T01:10:21;2.33;;;2.13;;
21438;SDS011;10880;50.302;18.736;2023-09-18T01:13:12;2.37;;;2.23;;
21438;SDS011;10880;50.302;18.736;2023-09-18T01:15:50;2.20;;;2.00;;
21438;SDS011;10880;50.302;18.736;2023-09-18T01:18:21;2.50;;;2.30;;
21438;SDS011;10880;50.302;18.736;2023-09-18T01:20:47;2.30;;;2.10;;
21438;SDS011;10880;50.302;18.736;2023-09-18T01:23:14;2.00;;;1.90;;
21438;SDS011;10880;50.302;18.736;2023-09-18T01:25:41;2.20;;;2.00;;
21438;SDS011;10880;50.302;18.736;2023-09-18T01:28:07;2.40;;;2.20;;
21438;SDS011;10880;50.302;18.736;2023-09-18T01:30:34;2.50;;;2.30;;
21438;SDS011;10880;50.302;18.736;2023-09-18T01:33:01;2.50;;;2.30;;
21438;SDS011;10880;50.302;18.736;2023-09-18T01:35:29;2.33;;;2.10;;
21438;SDS011;10880;50.302;18.736;2023-09-18T01:37:59;2.87;;;2.50;;
21438;SDS011;10880;50.302;18.736;2023-09-18T01:40:26;2.90;;;2.70;;
21438;SDS011;10880;50.302;18.736;2023-09-18T01:42:53;2.77;;;2.57;;
21438;SDS011;10880;50.302;18.736;2023-09-18T01:45:20;2.70;;;2.50;;
21438;SDS011;10880;50.302;18.736;2023-09-18T01:47:46;2.80;;;2.43;;
21438;SDS011;10880;50.302;18.736;2023-09-18T01:50:13;2.83;;;2.60;;
21438;SDS011;10880;50.302;18.736;2023-09-18T01:52:39;2.60;;;2.40;;
21438;SDS011;10880;50.302;18.736;2023-09-18T01:55:08;3.03;;;2.70;;
21438;SDS011;10880;50.302;18.736;2023-09-18T01:57:35;2.50;;;2.30;;
21438;SDS011;10880;50.302;18.736;2023-09-18T02:00:02;2.80;;;2.50;;
21438;SDS011;10880;50.302;18.736;2023-09-18T02:02:38;3.93;;;2.70;;
21438;SDS011;10880;50.302;18.736;2023-09-18T02:05:05;3.07;;;2.77;;
21438;SDS011;10880;50.302;18.736;2023-09-18T02:07:32;3.30;;;2.50;;
21438;SDS011;10880;50.302;18.736;2023-09-18T02:09:58;2.60;;;2.40;;
21438;SDS011;10880;50.302;18.736;2023-09-18T02:12:24;2.60;;;2.40;;
21438;SDS011;10880;50.302;18.736;2023-09-18T02:14:51;2.70;;;2.50;;
21438;SDS011;10880;50.302;18.736;2023-09-18T02:17:18;3.10;;;2.80;;
21438;SDS011;10880;50.302;18.736;2023-09-18T02:19:46;2.70;;;2.50;;
21438;SDS011;10880;50.302;18.736;2023-09-18T02:22:13;3.10;;;2.70;;
21438;SDS011;10880;50.302;18.736;2023-09-18T02:24:39;3.03;;;2.60;;
21438;SDS011;10880;50.302;18.736;2023-09-18T02:27:06;3.10;;;2.80;;
21438;SDS011;10880;50.302;18.736;2023-09-18T02:29:32;3.20;;;2.70;;
21438;SDS011;10880;50.302;18.736;2023-09-18T02:31:59;2.60;;;2.40;;
21438;SDS011;10880;50.302;18.736;2023-09-18T02:34:26;3.10;;;2.80;;
21438;SDS011;10880;50.302;18.736;2023-09-18T02:36:52;3.00;;;2.80;;
21438;SDS011;10880;50.302;18.736;2023-09-18T02:39:19;3.10;;;2.80;;
21438;SDS011;10880;50.302;18.736;2023-09-18T02:41:46;3.20;;;2.90;;
21438;SDS011;10880;50.302;18.736;2023-09-18T02:44:13;2.93;;;2.63;;
21438;SDS011;10880;50.302;18.736;2023-09-18T02:46:39;2.77;;;2.57;;
21438;SDS011;10880;50.302;18.736;2023-09-18T02:49:06;3.27;;;2.70;;
21438;SDS011;10880;50.302;18.736;2023-09-18T02:51:33;2.90;;;2.60;;
21438;SDS011;10880;50.302;18.736;2023-09-18T02:54:00;3.10;;;2.80;;
21438;SDS011;10880;50.302;18.736;2023-09-18T02:56:26;2.57;;;2.37;;
21438;SDS011;10880;50.302;18.736;2023-09-18T02:58:52;2.97;;;2.73;;
21438;SDS011;10880;50.302;18.736;2023-09-18T03:01:19;2.70;;;2.50;;
21438;SDS011;10880;50.302;18.736;2023-09-18T03:03:45;3.10;;;2.80;;
21438;SDS011;10880;50.302;18.736;2023-09-18T03:06:12;2.90;;;2.57;;
21438;SDS011;10880;50.302;18.736;2023-09-18T03:08:39;3.50;;;2.80;;
21438;SDS011;10880;50.302;18.736;2023-09-18T03:11:12;3.07;;;2.80;;
21438;SDS011;10880;50.302;18.736;2023-09-18T03:13:43;3.03;;;2.67;;
21438;SDS011;10880;50.302;18.736;2023-09-18T03:16:12;2.97;;;2.67;;
21438;SDS011;10880;50.302;18.736;2023-09-18T03:18:39;2.63;;;2.43;;
21438;SDS011;10880;50.302;18.736;2023-09-18T03:21:06;3.60;;;2.80;;
21438;SDS011;10880;50.302;18.736;2023-09-18T03:23:32;3.70;;;3.10;;
21438;SDS011;10880;50.302;18.736;2023-09-18T03:25:59;3.20;;;2.90;;
21438;SDS011;10880;50.302;18.736;2023-09-18T03:28:26;3.03;;;2.67;;
21438;SDS011;10880;50.302;18.736;2023-09-18T03:30:53;2.93;;;2.73;;
21438;SDS011;10880;50.302;18.736;2023-09-18T03:33:22;2.73;;;2.53;;
21438;SDS011;10880;50.302;18.736;2023-09-18T03:35:50;2.80;;;2.60;;
21438;SDS011;10880;50.302;18.736;2023-09-18T03:38:21;2.57;;;2.37;;
21438;SDS011;10880;50.302;18.736;2023-09-18T03:40:49;3.13;;;2.53;;
21438;SDS011;10880;50.302;18.736;2023-09-18T03:43:16;3.17;;;2.70;;
21438;SDS011;10880;50.302;18.736;2023-09-18T03:45:43;2.40;;;2.20;;
21438;SDS011;10880;50.302;18.736;2023-09-18T03:48:10;3.00;;;2.70;;
21438;SDS011;10880;50.302;18.736;2023-09-18T03:50:37;2.40;;;2.20;;
21438;SDS011;10880;50.302;18.736;2023-09-18T03:53:04;2.50;;;2.30;;
21438;SDS011;10880;50.302;18.736;2023-09-18T03:55:31;2.30;;;2.10;;
21438;SDS011;10880;50.302;18.736;2023-09-18T03:57:57;2.47;;;2.27;;
21438;SDS011;10880;50.302;18.736;2023-09-18T04:00:24;2.80;;;2.60;;
21438;SDS011;10880;50.302;18.736;2023-09-18T04:02:50;2.93;;;2.70;;
21438;SDS011;10880;50.302;18.736;2023-09-18T04:05:17;2.37;;;2.17;;
21438;SDS011;10880;50.302;18.736;2023-09-18T04:07:43;2.50;;;2.30;;
21438;SDS011;10880;50.302;18.736;2023-09-18T04:10:12;2.60;;;2.40;;
21438;SDS011;10880;50.302;18.736;2023-09-18T04:12:49;2.60;;;2.40;;
21438;SDS011;10880;50.302;18.736;2023-09-18T04:15:16;2.87;;;2.33;;
21438;SDS011;10880;50.302;18.736;2023-09-18T04:17:44;2.50;;;2.30;;
21438;SDS011;10880;50.302;18.736;2023-09-18T04:20:11;2.63;;;2.43;;
21438;SDS011;10880;50.302;18.736;2023-09-18T04:22:41;2.43;;;2.23;;
21438;SDS011;10880;50.302;18.736;2023-09-18T04:25:09;2.83;;;2.60;;
21438;SDS011;10880;50.302;18.736;2023-09-18T04:27:36;2.83;;;2.60;;
21438;SDS011;10880;50.302;18.736;2023-09-18T04:30:03;2.60;;;2.40;;
21438;SDS011;10880;50.302;18.736;2023-09-18T04:32:29;2.90;;;2.60;;
21438;SDS011;10880;50.302;18.736;2023-09-18T04:34:56;2.83;;;2.50;;
21438;SDS011;10880;50.302;18.736;2023-09-18T04:37:23;2.90;;;2.60;;
21438;SDS011;10880;50.302;18.736;2023-09-18T04:39:49;2.70;;;2.50;;
21438;SDS011;10880;50.302;18.736;2023-09-18T04:42:16;2.50;;;2.30;;
21438;SDS011;10880;50.302;18.736;2023-09-18T04:44:43;3.00;;;2.70;;
21438;SDS011;10880;50.302;18.736;2023-09-18T04:47:09;2.60;;;2.40;;
21438;SDS011;10880;50.302;18.736;2023-09-18T04:49:36;2.67;;;2.47;;
21438;SDS011;10880;50.302;18.736;2023-09-18T04:52:03;2.60;;;2.40;;
21438;SDS011;10880;50.302;18.736;2023-09-18T04:54:30;2.70;;;2.50;;
21438;SDS011;10880;50.302;18.736;2023-09-18T04:56:57;3.03;;;2.77;;
21438;SDS011;10880;50.302;18.736;2023-09-18T04:59:23;2.83;;;2.60;;
21438;SDS011;10880;50.302;18.736;2023-09-18T05:01:50;3.07;;;2.77;;
21438;SDS011;10880;50.302;18.736;2023-09-18T05:04:16;3.63;;;2.40;;
21438;SDS011;10880;50.302;18.736;2023-09-18T05:06:44;3.23;;;2.80;;
21438;SDS011;10880;50.302;18.736;2023-09-18T05:09:10;2.80;;;2.60;;
21438;SDS011;10880;50.302;18.736;2023-09-18T05:11:36;3.07;;;2.77;;
21438;SDS011;10880;50.302;18.736;2023-09-18T05:14:03;3.00;;;2.70;;
21438;SDS011;10880;50.302;18.736;2023-09-18T05:16:29;2.90;;;2.70;;
21438;SDS011;10880;50.302;18.736;2023-09-18T05:18:56;2.83;;;2.63;;
21438;SDS011;10880;50.302;18.736;2023-09-18T05:21:22;3.10;;;2.80;;
21438;SDS011;10880;50.302;18.736;2023-09-18T05:23:50;3.13;;;2.83;;
21438;SDS011;10880;50.302;18.736;2023-09-18T05:26:19;2.80;;;2.60;;
21438;SDS011;10880;50.302;18.736;2023-09-18T05:28:45;3.40;;;3.10;;
21438;SDS011;10880;50.302;18.736;2023-09-18T05:31:13;4.60;;;3.00;;
21438;SDS011;10880;50.302;18.736;2023-09-18T05:33:41;3.37;;;2.87;;
21438;SDS011;10880;50.302;18.736;2023-09-18T05:36:07;3.30;;;3.00;;
21438;SDS011;10880;50.302;18.736;2023-09-18T05:38:33;3.20;;;2.90;;
21438;SDS011;10880;50.302;18.736;2023-09-18T05:41:00;3.73;;;3.13;;
21438;SDS011;10880;50.302;18.736;2023-09-18T05:43:26;3.27;;;2.97;;
21438;SDS011;10880;50.302;18.736;2023-09-18T05:45:53;2.80;;;2.60;;
21438;SDS011;10880;50.302;18.736;2023-09-18T05:48:20;3.03;;;2.63;;
21438;SDS011;10880;50.302;18.736;2023-09-18T05:50:46;2.97;;;2.67;;
21438;SDS011;10880;50.302;18.736;2023-09-18T05:53:13;2.70;;;2.50;;
21438;SDS011;10880;50.302;18.736;2023-09-18T05:55:39;4.20;;;3.60;;
21438;SDS011;10880;50.302;18.736;2023-09-18T05:58:06;3.37;;;3.07;;
21438;SDS011;10880;50.302;18.736;2023-09-18T06:00:33;2.93;;;2.73;;
21438;SDS011;10880;50.302;18.736;2023-09-18T06:03:00;3.20;;;2.90;;
21438;SDS011;10880;50.302;18.736;2023-09-18T06:05:26;4.17;;;2.87;;
21438;SDS011;10880;50.302;18.736;2023-09-18T06:07:53;3.30;;;3.00;;
21438;SDS011;10880;50.302;18.736;2023-09-18T06:10:19;4.30;;;3.10;;
21438;SDS011;10880;50.302;18.736;2023-09-18T06:12:46;3.10;;;2.80;;
21438;SDS011;10880;50.302;18.736;2023-09-18T06:15:13;3.10;;;2.80;;
21438;SDS011;10880;50.302;18.736;2023-09-18T06:17:42;2.67;;;2.47;;
21438;SDS011;10880;50.302;18.736;2023-09-18T06:20:09;2.97;;;2.70;;
21438;SDS011;10880;50.302;18.736;2023-09-18T06:22:38;3.60;;;3.30;;
21438;SDS011;10880;50.302;18.736;2023-09-18T06:25:06;5.27;;;3.80;;
21438;SDS011;10880;50.302;18.736;2023-09-18T06:27:36;3.70;;;3.40;;
21438;SDS011;10880;50.302;18.736;2023-09-18T06:30:05;3.50;;;3.20;;
21438;SDS011;10880;50.302;18.736;2023-09-18T06:32:32;3.70;;;3.40;;
21438;SDS011;10880;50.302;18.736;2023-09-18T06:34:59;3.20;;;2.90;;
21438;SDS011;10880;50.302;18.736;2023-09-18T06:37:26;3.27;;;2.97;;
21438;SDS011;10880;50.302;18.736;2023-09-18T06:39:53;4.23;;;3.23;;
21438;SDS011;10880;50.302;18.736;2023-09-18T06:42:19;3.40;;;3.10;;
21438;SDS011;10880;50.302;18.736;2023-09-18T06:44:54;3.80;;;3.50;;
21438;SDS011;10880;50.302;18.736;2023-09-18T06:47:21;4.07;;;3.40;;
21438;SDS011;10880;50.302;18.736;2023-09-18T06:49:50;3.80;;;3.40;;
21438;SDS011;10880;50.302;18.736;2023-09-18T06:52:17;3.43;;;3.07;;
21438;SDS011;10880;50.302;18.736;2023-09-18T06:54:43;4.70;;;4.17;;
21438;SDS011;10880;50.302;18.736;2023-09-18T06:57:10;5.07;;;4.53;;
21438;SDS011;10880;50.302;18.736;2023-09-18T06:59:36;7.07;;;4.10;;
21438;SDS011;10880;50.302;18.736;2023-09-18T07:02:03;3.97;;;3.67;;
21438;SDS011;10880;50.302;18.736;2023-09-18T07:04:29;4.23;;;3.70;;
21438;SDS011;10880;50.302;18.736;2023-09-18T07:06:55;3.77;;;3.40;;
21438;SDS011;10880;50.302;18.736;2023-09-18T07:09:22;4.10;;;3.70;;
21438;SDS011;10880;50.302;18.736;2023-09-18T07:11:50;3.53;;;3.23;;
21438;SDS011;10880;50.302;18.736;2023-09-18T07:14:16;5.37;;;4.80;;
21438;SDS011;10880;50.302;18.736;2023-09-18T07:16:43;5.10;;;4.60;;
21438;SDS011;10880;50.302;18.736;2023-09-18T07:19:09;5.73;;;5.13;;
21438;SDS011;10880;50.302;18.736;2023-09-18T07:21:37;4.47;;;4.07;;
21438;SDS011;10880;50.302;18.736;2023-09-18T07:24:06;4.77;;;4.37;;
21438;SDS011;10880;50.302;18.736;2023-09-18T07:26:33;4.33;;;3.93;;
21438;SDS011;10880;50.302;18.736;2023-09-18T07:28:59;4.17;;;3.77;;
21438;SDS011;10880;50.302;18.736;2023-09-18T07:31:26;5.10;;;4.10;;
21438;SDS011;10880;50.302;18.736;2023-09-18T07:33:53;4.00;;;3.60;;
21438;SDS011;10880;50.302;18.736;2023-09-18T07:36:19;3.67;;;3.37;;
21438;SDS011;10880;50.302;18.736;2023-09-18T07:38:46;4.03;;;3.73;;
21438;SDS011;10880;50.302;18.736;2023-09-18T07:41:13;3.90;;;3.60;;
21438;SDS011;10880;50.302;18.736;2023-09-18T07:43:41;5.23;;;4.43;;
21438;SDS011;10880;50.302;18.736;2023-09-18T07:46:08;3.80;;;3.50;;
21438;SDS011;10880;50.302;18.736;2023-09-18T07:48:34;4.50;;;3.90;;
21438;SDS011;10880;50.302;18.736;2023-09-18T07:51:01;4.67;;;3.80;;
21438;SDS011;10880;50.302;18.736;2023-09-18T07:53:27;6.70;;;4.53;;
21438;SDS011;10880;50.302;18.736;2023-09-18T07:55:56;4.93;;;4.47;;
21438;SDS011;10880;50.302;18.736;2023-09-18T07:58:25;5.63;;;5.03;;
21438;SDS011;10880;50.302;18.736;2023-09-18T08:00:54;4.90;;;4.40;;
21438;SDS011;10880;50.302;18.736;2023-09-18T08:03:25;5.70;;;5.10;;
21438;SDS011;10880;50.302;18.736;2023-09-18T08:05:52;4.97;;;4.50;;
21438;SDS011;10880;50.302;18.736;2023-09-18T08:08:19;5.60;;;5.10;;
21438;SDS011;10880;50.302;18.736;2023-09-18T08:10:46;5.10;;;4.60;;
21438;SDS011;10880;50.302;18.736;2023-09-18T08:13:13;4.27;;;3.87;;
21438;SDS011;10880;50.302;18.736;2023-09-18T08:15:39;4.57;;;4.17;;
21438;SDS011;10880;50.302;18.736;2023-09-18T08:18:06;4.30;;;3.90;;
21438;SDS011;10880;50.302;18.736;2023-09-18T08:20:32;7.30;;;4.70;;
21438;SDS011;10880;50.302;18.736;2023-09-18T08:22:59;5.23;;;4.73;;
21438;SDS011;10880;50.302;18.736;2023-09-18T08:25:29;8.00;;;7.00;;
21438;SDS011;10880;50.302;18.736;2023-09-18T08:27:55;6.97;;;6.27;;
21438;SDS011;10880;50.302;18.736;2023-09-18T08:30:21;5.27;;;4.77;;
21438;SDS011;10880;50.302;18.736;2023-09-18T08:32:48;5.40;;;4.90;;
21438;SDS011;10880;50.302;18.736;2023-09-18T08:35:14;4.80;;;4.40;;
21438;SDS011;10880;50.302;18.736;2023-09-18T08:37:41;5.13;;;4.70;;
21438;SDS011;10880;50.302;18.736;2023-09-18T08:40:11;4.67;;;4.23;;
21438;SDS011;10880;50.302;18.736;2023-09-18T08:42:42;5.50;;;5.00;;
21438;SDS011;10880;50.302;18.736;2023-09-18T08:45:14;5.57;;;5.07;;
21438;SDS011;10880;50.302;18.736;2023-09-18T08:47:45;5.30;;;4.80;;
21438;SDS011;10880;50.302;18.736;2023-09-18T08:50:12;7.07;;;5.53;;
21438;SDS011;10880;50.302;18.736;2023-09-18T08:52:41;6.47;;;5.87;;
21438;SDS011;10880;50.302;18.736;2023-09-18T08:55:08;10.20;;;6.80;;
21438;SDS011;10880;50.302;18.736;2023-09-18T08:57:35;6.23;;;5.63;;
21438;SDS011;10880;50.302;18.736;2023-09-18T09:00:04;6.60;;;6.00;;
21438;SDS011;10880;50.302;18.736;2023-09-18T09:02:34;6.67;;;6.07;;
21438;SDS011;10880;50.302;18.736;2023-09-18T09:05:00;5.60;;;5.10;;
21438;SDS011;10880;50.302;18.736;2023-09-18T09:07:27;6.40;;;5.80;;
21438;SDS011;10880;50.302;18.736;2023-09-18T09:09:56;5.37;;;4.87;;
21438;SDS011;10880;50.302;18.736;2023-09-18T09:15:14;7.10;;;6.40;;
21438;SDS011;10880;50.302;18.736;2023-09-18T09:17:42;7.30;;;6.60;;
21438;SDS011;10880;50.302;18.736;2023-09-18T09:20:11;6.10;;;5.50;;
21438;SDS011;10880;50.302;18.736;2023-09-18T09:22:38;5.60;;;5.03;;
21438;SDS011;10880;50.302;18.736;2023-09-18T09:25:27;4.77;;;4.37;;
21438;SDS011;10880;50.302;18.736;2023-09-18T09:28:06;5.33;;;4.83;;
21438;SDS011;10880;50.302;18.736;2023-09-18T09:30:34;4.97;;;4.47;;
21438;SDS011;10880;50.302;18.736;2023-09-18T09:33:04;4.37;;;3.97;;
21438;SDS011;10880;50.302;18.736;2023-09-18T09:35:33;3.97;;;3.57;;
21438;SDS011;10880;50.302;18.736;2023-09-18T09:38:09;4.20;;;3.80;;
21438;SDS011;10880;50.302;18.736;2023-09-18T09:40:40;5.77;;;5.17;;
21438;SDS011;10880;50.302;18.736;2023-09-18T09:43:08;6.30;;;5.70;;
21438;SDS011;10880;50.302;18.736;2023-09-18T09:45:36;6.57;;;5.90;;
21438;SDS011;10880;50.302;18.736;2023-09-18T09:48:03;6.13;;;5.53;;
21438;SDS011;10880;50.302;18.736;2023-09-18T09:50:35;6.18;;;5.57;;
21438;SDS011;10880;50.302;18.736;2023-09-18T09:53:14;6.18;;;5.57;;
21438;SDS011;10880;50.302;18.736;2023-09-18T09:55:40;7.07;;;6.38;;
21438;SDS011;10880;50.302;18.736;2023-09-18T09:58:08;5.57;;;5.07;;
21438;SDS011;10880;50.302;18.736;2023-09-18T10:03:12;7.45;;;6.75;;
21438;SDS011;10880;50.302;18.736;2023-09-18T10:05:41;5.95;;;5.35;;
21438;SDS011;10880;50.302;18.736;2023-09-18T10:08:43;6.13;;;5.57;;
21438;SDS011;10880;50.302;18.736;2023-09-18T10:11:06;6.70;;;6.00;;
21438;SDS011;10880;50.302;18.736;2023-09-18T10:13:38;6.40;;;5.80;;
21438;SDS011;10880;50.302;18.736;2023-09-18T10:16:13;5.75;;;5.25;;
21438;SDS011;10880;50.302;18.736;2023-09-18T10:24:24;6.68;;;5.97;;
21438;SDS011;10880;50.302;18.736;2023-09-18T10:26:57;7.35;;;6.65;;
21438;SDS011;10880;50.302;18.736;2023-09-18T10:29:28;6.78;;;6.18;;
21438;SDS011;10880;50.302;18.736;2023-09-18T10:31:57;6.60;;;5.93;;
21438;SDS011;10880;50.302;18.736;2023-09-18T10:34:24;6.75;;;6.15;;
21438;SDS011;10880;50.302;18.736;2023-09-18T10:36:52;6.10;;;5.50;;
21438;SDS011;10880;50.302;18.736;2023-09-18T10:39:25;5.78;;;5.28;;
21438;SDS011;10880;50.302;18.736;2023-09-18T10:41:54;5.13;;;4.63;;
21438;SDS011;10880;50.302;18.736;2023-09-18T10:44:22;5.88;;;5.35;;
21438;SDS011;10880;50.302;18.736;2023-09-18T10:46:50;7.30;;;6.60;;
21438;SDS011;10880;50.302;18.736;2023-09-18T10:49:18;6.47;;;5.88;;
21438;SDS011;10880;50.302;18.736;2023-09-18T10:51:48;6.10;;;5.50;;
21438;SDS011;10880;50.302;18.736;2023-09-18T10:54:21;6.28;;;5.68;;
21438;SDS011;10880;50.302;18.736;2023-09-18T10:56:49;5.82;;;5.32;;
21438;SDS011;10880;50.302;18.736;2023-09-18T10:59:17;6.47;;;5.28;;
21438;SDS011;10880;50.302;18.736;2023-09-18T11:01:44;7.95;;;7.05;;
21438;SDS011;10880;50.302;18.736;2023-09-18T11:04:13;8.55;;;7.65;;
21438;SDS011;10880;50.302;18.736;2023-09-18T11:09:29;6.80;;;6.20;;
21438;SDS011;10880;50.302;18.736;2023-09-18T11:14:44;8.23;;;7.32;;
21438;SDS011;10880;50.302;18.736;2023-09-18T11:26:02;7.43;;;5.97;;
21438;SDS011;10880;50.302;18.736;2023-09-18T11:28:30;7.32;;;6.47;;
21438;SDS011;10880;50.302;18.736;2023-09-18T11:30:57;5.70;;;5.10;;
21438;SDS011;10880;50.302;18.736;2023-09-18T11:33:29;4.72;;;4.32;;
21438;SDS011;10880;50.302;18.736;2023-09-18T11:36:07;6.22;;;5.63;;
21438;SDS011;10880;50.302;18.736;2023-09-18T11:38:56;7.35;;;5.53;;
21438;SDS011;10880;50.302;18.736;2023-09-18T11:41:31;5.40;;;4.90;;
21438;SDS011;10880;50.302;18.736;2023-09-18T11:46:45;5.63;;;5.05;;
21438;SDS011;10880;50.302;18.736;2023-09-18T11:49:18;4.93;;;4.38;;
21438;SDS011;10880;50.302;18.736;2023-09-18T11:51:52;5.25;;;4.75;;
21438;SDS011;10880;50.302;18.736;2023-09-18T11:54:19;5.85;;;5.35;;
21438;SDS011;10880;50.302;18.736;2023-09-18T11:56:47;4.43;;;4.03;;
21438;SDS011;10880;50.302;18.736;2023-09-18T11:59:13;4.20;;;3.80;;
21438;SDS011;10880;50.302;18.736;2023-09-18T12:01:39;4.43;;;4.03;;
21438;SDS011;10880;50.302;18.736;2023-09-18T12:04:06;5.78;;;5.28;;
21438;SDS011;10880;50.302;18.736;2023-09-18T12:06:40;5.30;;;4.80;;
21438;SDS011;10880;50.302;18.736;2023-09-18T12:09:08;9.32;;;4.32;;
21438;SDS011;10880;50.302;18.736;2023-09-18T12:11:34;4.40;;;4.00;;
21438;SDS011;10880;50.302;18.736;2023-09-18T12:14:02;5.25;;;4.57;;
21438;SDS011;10880;50.302;18.736;2023-09-18T12:16:29;5.18;;;4.50;;
21438;SDS011;10880;50.302;18.736;2023-09-18T12:18:56;4.60;;;4.20;;
21438;SDS011;10880;50.302;18.736;2023-09-18T12:21:24;5.88;;;5.30;;
21438;SDS011;10880;50.302;18.736;2023-09-18T12:23:51;5.20;;;4.70;;
21438;SDS011;10880;50.302;18.736;2023-09-18T12:26:17;4.82;;;4.07;;
21438;SDS011;10880;50.302;18.736;2023-09-18T12:28:45;4.65;;;4.18;;
21438;SDS011;10880;50.302;18.736;2023-09-18T12:31:12;3.95;;;3.65;;
21438;SDS011;10880;50.302;18.736;2023-09-18T12:33:40;4.72;;;4.22;;
21438;SDS011;10880;50.302;18.736;2023-09-18T12:36:09;4.20;;;3.80;;
21438;SDS011;10880;50.302;18.736;2023-09-18T12:38:36;4.40;;;4.00;;
21438;SDS011;10880;50.302;18.736;2023-09-18T12:41:03;4.88;;;3.30;;
21438;SDS011;10880;50.302;18.736;2023-09-18T12:43:36;4.63;;;4.07;;
21438;SDS011;10880;50.302;18.736;2023-09-18T12:46:07;4.28;;;3.50;;
21438;SDS011;10880;50.302;18.736;2023-09-18T12:48:38;5.18;;;4.30;;
21438;SDS011;10880;50.302;18.736;2023-09-18T12:51:11;3.33;;;3.03;;
21438;SDS011;10880;50.302;18.736;2023-09-18T12:53:37;3.50;;;3.20;;
21438;SDS011;10880;50.302;18.736;2023-09-18T12:56:04;3.45;;;3.15;;
21438;SDS011;10880;50.302;18.736;2023-09-18T12:58:41;4.22;;;3.83;;
21438;SDS011;10880;50.302;18.736;2023-09-18T13:01:09;3.22;;;2.92;;
21438;SDS011;10880;50.302;18.736;2023-09-18T13:03:42;3.60;;;3.30;;
21438;SDS011;10880;50.302;18.736;2023-09-18T13:06:16;5.65;;;5.13;;
21438;SDS011;10880;50.302;18.736;2023-09-18T13:08:45;5.15;;;4.65;;
21438;SDS011;10880;50.302;18.736;2023-09-18T13:11:12;4.00;;;3.60;;
21438;SDS011;10880;50.302;18.736;2023-09-18T13:13:42;4.15;;;3.75;;
21438;SDS011;10880;50.302;18.736;2023-09-18T13:16:12;4.20;;;3.80;;
21438;SDS011;10880;50.302;18.736;2023-09-18T13:18:40;4.15;;;3.78;;
21438;SDS011;10880;50.302;18.736;2023-09-18T13:21:10;4.40;;;4.00;;
21438;SDS011;10880;50.302;18.736;2023-09-18T13:23:40;4.53;;;4.13;;
21438;SDS011;10880;50.302;18.736;2023-09-18T13:26:07;3.70;;;3.40;;
21438;SDS011;10880;50.302;18.736;2023-09-18T13:28:34;3.40;;;3.10;;
21438;SDS011;10880;50.302;18.736;2023-09-18T13:31:02;3.85;;;2.30;;
21438;SDS011;10880;50.302;18.736;2023-09-18T13:33:32;3.08;;;2.78;;
21438;SDS011;10880;50.302;18.736;2023-09-18T13:36:16;2.88;;;2.67;;
21438;SDS011;10880;50.302;18.736;2023-09-18T13:39:02;3.65;;;3.35;;
21438;SDS011;10880;50.302;18.736;2023-09-18T13:41:30;4.80;;;3.15;;
21438;SDS011;10880;50.302;18.736;2023-09-18T13:43:57;3.53;;;3.22;;
21438;SDS011;10880;50.302;18.736;2023-09-18T13:46:23;3.70;;;3.40;;
21438;SDS011;10880;50.302;18.736;2023-09-18T13:48:49;3.35;;;3.05;;
21438;SDS011;10880;50.302;18.736;2023-09-18T13:51:16;4.00;;;3.10;;
21438;SDS011;10880;50.302;18.736;2023-09-18T13:53:43;4.10;;;3.70;;
21438;SDS011;10880;50.302;18.736;2023-09-18T13:56:10;3.55;;;3.25;;
21438;SDS011;10880;50.302;18.736;2023-09-18T13:58:36;3.10;;;2.80;;
21438;SDS011;10880;50.302;18.736;2023-09-18T14:01:07;2.55;;;2.35;;
21438;SDS011;10880;50.302;18.736;2023-09-18T14:03:33;3.38;;;2.50;;
21438;SDS011;10880;50.302;18.736;2023-09-18T14:06:00;2.65;;;2.45;;
21438;SDS011;10880;50.302;18.736;2023-09-18T14:08:28;2.35;;;2.15;;
21438;SDS011;10880;50.302;18.736;2023-09-18T14:10:54;2.20;;;2.00;;
21438;SDS011;10880;50.302;18.736;2023-09-18T14:13:21;2.47;;;1.90;;
21438;SDS011;10880;50.302;18.736;2023-09-18T14:15:47;1.83;;;1.73;;
21438;SDS011;10880;50.302;18.736;2023-09-18T14:18:14;2.28;;;2.08;;
21438;SDS011;10880;50.302;18.736;2023-09-18T14:20:40;2.28;;;2.08;;
21438;SDS011;10880;50.302;18.736;2023-09-18T14:23:06;1.88;;;1.77;;
21438;SDS011;10880;50.302;18.736;2023-09-18T14:25:33;2.50;;;2.30;;
21438;SDS011;10880;50.302;18.736;2023-09-18T14:27:59;2.65;;;2.45;;
21438;SDS011;10880;50.302;18.736;2023-09-18T14:30:26;2.85;;;2.63;;
21438;SDS011;10880;50.302;18.736;2023-09-18T14:32:57;2.40;;;2.20;;
21438;SDS011;10880;50.302;18.736;2023-09-18T14:35:23;2.50;;;2.30;;
21438;SDS011;10880;50.302;18.736;2023-09-18T14:37:50;2.22;;;2.03;;
21438;SDS011;10880;50.302;18.736;2023-09-18T14:40:16;2.25;;;2.00;;
21438;SDS011;10880;50.302;18.736;2023-09-18T14:42:43;2.30;;;2.10;;
21438;SDS011;10880;50.302;18.736;2023-09-18T14:45:09;1.98;;;1.88;;
21438;SDS011;10880;50.302;18.736;2023-09-18T14:47:38;1.90;;;1.80;;
21438;SDS011;10880;50.302;18.736;2023-09-18T14:50:05;1.90;;;1.80;;
21438;SDS011;10880;50.302;18.736;2023-09-18T14:52:37;3.65;;;2.20;;
21438;SDS011;10880;50.302;18.736;2023-09-18T14:55:04;2.00;;;1.90;;
21438;SDS011;10880;50.302;18.736;2023-09-18T14:57:31;2.05;;;1.95;;
21438;SDS011;10880;50.302;18.736;2023-09-18T14:59:57;2.63;;;2.42;;
21438;SDS011;10880;50.302;18.736;2023-09-18T15:02:24;4.07;;;2.22;;
21438;SDS011;10880;50.302;18.736;2023-09-18T15:04:57;2.45;;;2.17;;
21438;SDS011;10880;50.302;18.736;2023-09-18T15:07:25;2.30;;;2.10;;